createdAt,value
2023-01-17T07:04:30.965Z,1.08
2023-01-17T07:06:57.290Z,1.15
2023-01-17T07:09:23.634Z,1.10
2023-01-17T07:11:51.078Z,1.20
2023-01-17T07:14:17.387Z,1.10
2023-01-17T07:16:45.291Z,1.10
2023-01-17T07:19:11.849Z,1.25
2023-01-17T07:21:38.195Z,1.90
2023-01-17T07:24:04.733Z,1.60
2023-01-17T07:26:31.185Z,1.20
2023-01-17T07:28:58.225Z,1.15
2023-01-17T07:31:24.528Z,1.17
2023-01-17T07:33:51.152Z,2.00
2023-01-17T07:36:17.875Z,1.73
2023-01-17T07:38:46.098Z,1.73
2023-01-17T07:41:12.530Z,4.82
2023-01-17T07:43:39.140Z,2.33
2023-01-17T07:46:07.363Z,1.63
2023-01-17T07:48:33.852Z,3.00
2023-01-17T07:51:00.194Z,2.30
2023-01-17T07:53:27.783Z,1.95
2023-01-17T07:55:54.108Z,3.60
2023-01-17T07:58:20.601Z,4.28
2023-01-17T08:00:47.592Z,3.35
2023-01-17T08:03:15.536Z,2.95
2023-01-17T08:05:44.446Z,10.63
2023-01-17T08:08:10.717Z,5.88
2023-01-17T08:10:37.149Z,2.55
2023-01-17T08:13:03.581Z,3.90
2023-01-17T08:15:32.313Z,6.00
2023-01-17T08:17:59.302Z,6.37
2023-01-17T08:20:27.926Z,5.50
2023-01-17T08:22:55.681Z,9.05
2023-01-17T08:25:23.259Z,2.53
2023-01-17T08:27:50.459Z,6.82
2023-01-17T08:30:19.851Z,5.30
2023-01-17T08:32:46.217Z,4.35
2023-01-17T08:35:13.489Z,3.22
2023-01-17T08:37:40.005Z,5.43
2023-01-17T08:40:06.963Z,6.65
2023-01-17T08:42:38.399Z,2.97
2023-01-17T08:45:06.466Z,3.10
2023-01-17T08:47:33.433Z,5.10
2023-01-17T08:50:00.192Z,5.40
2023-01-17T08:52:28.344Z,7.95
2023-01-17T08:54:54.643Z,7.82
2023-01-17T08:57:21.726Z,6.53
2023-01-17T08:59:48.258Z,4.60
2023-01-17T09:02:15.710Z,4.07
2023-01-17T09:04:46.125Z,5.32
2023-01-17T09:07:13.106Z,2.88
2023-01-17T09:09:39.697Z,6.22
2023-01-17T09:12:06.420Z,3.92
2023-01-17T09:14:33.039Z,5.28
2023-01-17T09:16:59.463Z,4.72
2023-01-17T09:19:44.932Z,5.50
2023-01-17T09:22:11.899Z,6.18
2023-01-17T09:24:38.334Z,6.60
2023-01-17T09:27:04.649Z,9.57
2023-01-17T09:29:30.951Z,9.55
2023-01-17T09:31:57.339Z,7.13
2023-01-17T09:34:25.880Z,5.05
2023-01-17T09:36:52.431Z,4.78
2023-01-17T09:39:37.551Z,4.80
2023-01-17T09:44:56.428Z,7.68
2023-01-17T09:50:03.757Z,7.22
2023-01-17T09:52:30.628Z,4.13
2023-01-17T09:54:57.143Z,5.15
2023-01-17T09:57:43.452Z,4.28
2023-01-17T10:00:20.746Z,7.28
2023-01-17T10:02:56.281Z,8.30
2023-01-17T10:08:08.281Z,7.23
2023-01-17T10:10:55.143Z,5.05
2023-01-17T10:13:27.579Z,6.93
2023-01-17T10:18:58.603Z,3.63
2023-01-17T10:26:41.209Z,4.32
2023-01-17T10:29:12.553Z,3.40
2023-01-17T10:31:41.972Z,3.42
2023-01-17T10:34:13.449Z,3.38
2023-01-17T10:36:41.794Z,4.43
2023-01-17T10:39:24.933Z,5.50
2023-01-17T10:42:10.110Z,4.32
2023-01-17T10:44:45.975Z,5.32
2023-01-17T10:47:18.231Z,3.45
2023-01-17T10:49:46.556Z,4.53
2023-01-17T10:52:19.019Z,6.72
2023-01-17T10:55:05.320Z,4.18
2023-01-17T10:57:38.172Z,5.28
2023-01-17T11:00:17.896Z,3.65
2023-01-17T11:03:34.388Z,4.07
2023-01-17T11:06:20.808Z,3.40
2023-01-17T11:08:52.149Z,4.97
2023-01-17T11:11:19.899Z,6.83
2023-01-17T11:13:48.391Z,4.15
2023-01-17T11:16:20.466Z,6.68
2023-01-17T11:18:48.363Z,3.85
2023-01-17T11:21:16.941Z,2.70
2023-01-17T11:23:46.294Z,5.30
2023-01-17T11:30:03.540Z,3.13
2023-01-17T11:32:31.670Z,3.70
2023-01-17T11:35:06.946Z,6.10
2023-01-17T11:37:36.187Z,4.85
2023-01-17T11:40:22.459Z,3.67
2023-01-17T11:43:00.522Z,3.28
2023-01-17T11:45:28.801Z,4.37
2023-01-17T11:48:15.390Z,3.03
2023-01-17T11:50:43.879Z,4.57
2023-01-17T11:53:16.380Z,6.15
2023-01-17T11:56:03.200Z,4.22
2023-01-17T11:58:32.416Z,4.88
2023-01-17T12:01:00.718Z,5.15
2023-01-17T12:03:39.986Z,6.13
2023-01-17T12:17:05.371Z,5.68
2023-01-17T12:19:38.029Z,5.38
2023-01-17T12:25:02.257Z,6.10
2023-01-17T12:27:48.483Z,7.85
2023-01-17T12:33:05.725Z,6.53
2023-01-17T12:35:37.805Z,5.90
2023-01-17T12:38:08.353Z,5.60
2023-01-17T12:40:36.748Z,7.53
2023-01-17T12:43:07.624Z,4.20
2023-01-17T12:45:38.513Z,12.77
2023-01-17T12:48:09.014Z,5.03
2023-01-17T12:50:40.275Z,10.90
2023-01-17T12:56:52.644Z,5.38
2023-01-17T12:59:25.831Z,6.22
2023-01-17T13:01:57.887Z,6.38
2023-01-17T13:04:27.935Z,7.03
2023-01-17T13:07:14.181Z,8.00
2023-01-17T13:09:45.038Z,5.85
2023-01-17T13:12:13.617Z,6.78
2023-01-17T13:14:39.887Z,9.93
2023-01-17T13:22:36.097Z,8.45
2023-01-17T13:30:47.559Z,8.18
2023-01-17T13:35:58.781Z,10.63
2023-01-17T13:38:53.912Z,9.95
2023-01-17T13:44:20.704Z,32.90
2023-01-17T13:47:04.091Z,23.30
2023-01-17T13:55:04.550Z,45.67
2023-01-17T13:57:33.836Z,44.80
2023-01-17T14:00:21.042Z,35.17
2023-01-17T14:02:48.371Z,35.53
2023-01-17T14:05:16.698Z,33.80
